Time;durP1;ratioP1;P1;durP2;ratioP2;P2;SDS_P1;SDS_P2;PMS_P1;PMS_P2;Temp;Humidity;BMP_temperature;BMP_pressure;BME280_temperature;BME280_humidity;BME280_pressure;Samples;Min_cycle;Max_cycle;Signal;HPM_P1;HPM_P2
2024/03/13 00:00:37;;;;;;;0.00;0.00;;;;;;;;;;5092882;28;20020;-63
2024/03/13 00:03:02;;;;;;;0.00;0.00;;;;;;;;;;5092642;28;20023;-63
2024/03/13 00:05:29;;;;;;;0.00;0.00;;;;;;;;;;5093070;28;20487;-63
2024/03/13 00:07:54;;;;;;;0.00;0.00;;;;;;;;;;5093015;28;20463;-62
2024/03/13 00:10:20;;;;;;;0.00;0.00;;;;;;;;;;5094127;28;20034;-63
2024/03/13 00:12:45;;;;;;;0.00;0.00;;;;;;;;;;5092773;28;20028;-63
2024/03/13 00:15:11;;;;;;;0.00;0.00;;;;;;;;;;5093737;28;20091;-63
2024/03/13 00:17:36;;;;;;;0.00;0.00;;;;;;;;;;5092852;28;20269;-62
2024/03/13 00:20:03;;;;;;;0.08;0.08;;;;;;;;;;5084946;28;20052;-62
2024/03/13 00:22:29;;;;;;;0.00;0.00;;;;;;;;;;5093017;28;20099;-63
2024/03/13 00:24:58;;;;;;;0.15;0.15;;;;;;;;;;5103045;28;20079;-62
2024/03/13 00:27:24;;;;;;;0.10;0.10;;;;;;;;;;5113616;28;20019;-63
2024/03/13 00:29:49;;;;;;;0.00;0.00;;;;;;;;;;5113002;28;20424;-63
2024/03/13 00:32:16;;;;;;;0.00;0.00;;;;;;;;;;5113410;28;20023;-63
2024/03/13 00:34:44;;;;;;;0.00;0.00;;;;;;;;;;5113527;28;20102;-63
2024/03/13 00:37:09;;;;;;;0.10;0.10;;;;;;;;;;5112380;28;20035;-63
2024/03/13 00:39:34;;;;;;;0.40;0.40;;;;;;;;;;5093329;28;20028;-63
2024/03/13 00:42:02;;;;;;;0.00;0.00;;;;;;;;;;5093349;28;20383;-63
2024/03/13 00:44:27;;;;;;;0.00;0.00;;;;;;;;;;5093323;28;20035;-62
2024/03/13 00:46:52;;;;;;;0.10;0.10;;;;;;;;;;5093333;28;20028;-63
2024/03/13 00:49:18;;;;;;;0.00;0.00;;;;;;;;;;5093570;28;20024;-63
2024/03/13 00:51:46;;;;;;;0.43;0.30;;;;;;;;;;5095439;28;20667;-63
2024/03/13 00:54:11;;;;;;;0.10;0.10;;;;;;;;;;5112696;28;20023;-63
2024/03/13 00:56:36;;;;;;;0.10;0.10;;;;;;;;;;5099249;28;20028;-63
2024/03/13 00:59:02;;;;;;;0.20;0.20;;;;;;;;;;5101795;28;20284;-63
2024/03/13 01:01:27;;;;;;;0.00;0.00;;;;;;;;;;5110664;28;20019;-63
2024/03/13 01:03:58;;;;;;;0.08;0.08;;;;;;;;;;5093393;28;20053;-63
2024/03/13 01:06:29;;;;;;;0.00;0.00;;;;;;;;;;5093380;28;20016;-63
2024/03/13 01:08:55;;;;;;;0.00;0.00;;;;;;;;;;5104110;28;20089;-63
2024/03/13 01:11:21;;;;;;;0.00;0.00;;;;;;;;;;5112613;28;20027;-63
2024/03/13 01:13:46;;;;;;;0.10;0.10;;;;;;;;;;5110466;28;20486;-63
2024/03/13 01:16:12;;;;;;;0.00;0.00;;;;;;;;;;5093092;28;20024;-63
2024/03/13 01:18:37;;;;;;;0.00;0.00;;;;;;;;;;5092945;28;20027;-63
2024/03/13 01:21:02;;;;;;;0.00;0.00;;;;;;;;;;5093035;28;20252;-63
2024/03/13 01:23:27;;;;;;;0.00;0.00;;;;;;;;;;5094703;28;20016;-63
2024/03/13 01:25:54;;;;;;;0.10;0.10;;;;;;;;;;5113916;28;20060;-63
2024/03/13 01:28:21;;;;;;;0.88;0.30;;;;;;;;;;5117004;28;20043;-63
2024/03/13 01:30:46;;;;;;;0.00;0.00;;;;;;;;;;5116931;28;20023;-63
2024/03/13 01:33:12;;;;;;;0.10;0.10;;;;;;;;;;5114666;28;20031;-63
2024/03/13 01:35:37;;;;;;;0.30;0.20;;;;;;;;;;5101517;28;20244;-63
2024/03/13 01:38:03;;;;;;;0.10;0.10;;;;;;;;;;5099922;28;20027;-62
2024/03/13 01:56:59;;;;;;;0.10;0.10;;;;;;;;;;5100361;28;20062;-63
2024/03/13 01:59:35;;;;;;;0.10;0.10;;;;;;;;;;5107825;28;20459;-63
2024/03/13 02:04:44;;;;;;;0.08;0.08;;;;;;;;;;5115387;28;20073;-63
2024/03/13 02:07:09;;;;;;;0.10;0.10;;;;;;;;;;5096967;28;20433;-63
2024/03/13 02:09:34;;;;;;;0.33;0.33;;;;;;;;;;5108333;28;20035;-63
2024/03/13 02:11:59;;;;;;;0.10;0.10;;;;;;;;;;5097795;28;20269;-63
2024/03/13 02:14:25;;;;;;;0.30;0.30;;;;;;;;;;5097825;28;20027;-63
2024/03/13 02:16:51;;;;;;;0.30;0.30;;;;;;;;;;5111882;28;20368;-62
2024/03/13 02:19:18;;;;;;;0.20;0.20;;;;;;;;;;5116607;28;20102;-63
2024/03/13 02:21:47;;;;;;;0.77;0.77;;;;;;;;;;5115914;28;20495;-63
2024/03/13 02:24:12;;;;;;;0.08;0.08;;;;;;;;;;5099370;28;20478;-63
2024/03/13 02:26:40;;;;;;;0.00;0.00;;;;;;;;;;5076191;28;20029;-63
2024/03/13 02:29:05;;;;;;;0.10;0.10;;;;;;;;;;5072417;28;20082;-63
2024/03/13 02:31:31;;;;;;;0.50;0.30;;;;;;;;;;5057747;28;20033;-62
2024/03/13 02:33:56;;;;;;;0.35;0.35;;;;;;;;;;5055216;28;20246;-63
2024/03/13 02:36:21;;;;;;;0.27;0.27;;;;;;;;;;5056299;28;20033;-63
2024/03/13 02:38:47;;;;;;;0.23;0.23;;;;;;;;;;5075371;28;20711;-63
2024/03/13 02:41:12;;;;;;;0.10;0.10;;;;;;;;;;5075591;28;20601;-63
2024/03/13 02:43:40;;;;;;;0.27;0.27;;;;;;;;;;5075412;28;20426;-63
2024/03/13 02:46:05;;;;;;;0.20;0.20;;;;;;;;;;5075519;28;20384;-63
2024/03/13 02:48:30;;;;;;;0.40;0.40;;;;;;;;;;5075488;28;20037;-63
2024/03/13 02:50:56;;;;;;;0.13;0.13;;;;;;;;;;5073588;28;20103;-63
2024/03/13 02:53:21;;;;;;;0.43;0.43;;;;;;;;;;5075390;28;20028;-63
2024/03/13 02:55:47;;;;;;;2.33;0.73;;;;;;;;;;5075058;28;20099;-63
2024/03/13 02:58:12;;;;;;;0.70;0.70;;;;;;;;;;5075220;28;20024;-63
2024/03/13 03:00:37;;;;;;;0.43;0.40;;;;;;;;;;5072903;28;20027;-63
2024/03/13 03:03:03;;;;;;;0.23;0.23;;;;;;;;;;5055078;28;20242;-63
2024/03/13 03:05:35;;;;;;;0.08;0.08;;;;;;;;;;5054892;28;20016;-63
2024/03/13 03:08:00;;;;;;;0.20;0.10;;;;;;;;;;5055099;28;20032;-63
2024/03/13 03:10:25;;;;;;;0.97;0.40;;;;;;;;;;5054768;28;20017;-63
2024/03/13 03:12:51;;;;;;;0.33;0.33;;;;;;;;;;5055612;28;20025;-63
2024/03/13 03:15:18;;;;;;;0.38;0.38;;;;;;;;;;5055042;28;20028;-66
2024/03/13 03:17:45;;;;;;;0.20;0.20;;;;;;;;;;5054634;28;20092;-66
2024/03/13 03:20:11;;;;;;;0.10;0.10;;;;;;;;;;5054857;28;20017;-66
2024/03/13 03:22:36;;;;;;;0.98;0.45;;;;;;;;;;5065434;28;20082;-66
2024/03/13 03:25:02;;;;;;;0.40;0.40;;;;;;;;;;5069011;28;20048;-66
2024/03/13 03:27:27;;;;;;;0.17;0.17;;;;;;;;;;5074579;28;20253;-66
2024/03/13 03:29:52;;;;;;;0.03;0.03;;;;;;;;;;5074261;28;20089;-65
2024/03/13 03:32:18;;;;;;;0.60;0.60;;;;;;;;;;5074096;28;20629;-66
2024/03/13 03:34:43;;;;;;;0.88;0.22;;;;;;;;;;5074152;28;20246;-66
2024/03/13 03:37:08;;;;;;;0.10;0.10;;;;;;;;;;5089367;28;20107;-66
2024/03/13 03:39:33;;;;;;;1.40;0.30;;;;;;;;;;5114766;28;20042;-66
2024/03/13 03:41:59;;;;;;;0.57;0.55;;;;;;;;;;5115072;28;20595;-66
2024/03/13 03:44:24;;;;;;;0.33;0.33;;;;;;;;;;5114771;28;20028;-66
2024/03/13 03:46:49;;;;;;;0.00;0.00;;;;;;;;;;5114769;28;20027;-66
2024/03/13 03:49:15;;;;;;;0.08;0.08;;;;;;;;;;5114606;28;20379;-66
2024/03/13 03:51:41;;;;;;;0.65;0.30;;;;;;;;;;5111467;28;20387;-66
2024/03/13 03:54:06;;;;;;;0.60;0.60;;;;;;;;;;5094258;28;20487;-65
2024/03/13 03:56:38;;;;;;;0.47;0.40;;;;;;;;;;5094255;28;20027;-66
2024/03/13 03:59:03;;;;;;;;;;;;;;;;;;5094703;28;20268;-66
2024/03/13 04:01:28;;;;;;;0.10;0.10;;;;;;;;;;5094052;28;19904;-66
2024/03/13 04:04:01;;;;;;;0.20;0.20;;;;;;;;;;5094277;28;20466;-66
2024/03/13 04:06:26;;;;;;;0.52;0.52;;;;;;;;;;5094178;28;20479;-66
2024/03/13 04:08:51;;;;;;;0.10;0.10;;;;;;;;;;5109328;28;20024;-66
2024/03/13 04:11:16;;;;;;;0.32;0.32;;;;;;;;;;5114291;28;20027;-65
2024/03/13 04:13:42;;;;;;;0.20;0.13;;;;;;;;;;5095030;28;20024;-65
2024/03/13 04:16:10;;;;;;;0.00;0.00;;;;;;;;;;5093732;28;20314;-65
2024/03/13 04:18:36;;;;;;;0.08;0.08;;;;;;;;;;5093964;28;20077;-66
2024/03/13 04:21:01;;;;;;;1.00;0.85;;;;;;;;;;5093701;28;20523;-66
2024/03/13 04:23:26;;;;;;;1.40;1.02;;;;;;;;;;5093932;28;20043;-66
2024/03/13 04:25:55;;;;;;;0.00;0.00;;;;;;;;;;5093317;28;20044;-66
2024/03/13 04:28:20;;;;;;;0.10;0.10;;;;;;;;;;5112486;28;20509;-66
2024/03/13 04:30:46;;;;;;;0.10;0.10;;;;;;;;;;5113973;28;20019;-66
2024/03/13 04:33:11;;;;;;;0.28;0.28;;;;;;;;;;5114123;28;20248;-66
2024/03/13 04:35:36;;;;;;;0.20;0.20;;;;;;;;;;5114012;28;20429;-63
2024/03/13 04:38:03;;;;;;;0.40;0.40;;;;;;;;;;5103718;28;20044;-63
2024/03/13 04:40:28;;;;;;;0.30;0.28;;;;;;;;;;5093673;28;20020;-63
2024/03/13 04:42:53;;;;;;;0.00;0.00;;;;;;;;;;5093489;28;20322;-63
2024/03/13 04:45:18;;;;;;;0.40;0.37;;;;;;;;;;5093425;28;20263;-63
2024/03/13 04:47:44;;;;;;;0.00;0.00;;;;;;;;;;5093397;28;20739;-63
2024/03/13 04:50:09;;;;;;;0.20;0.20;;;;;;;;;;5093437;28;20024;-63
2024/03/13 04:52:34;;;;;;;0.05;0.05;;;;;;;;;;5093560;28;20024;-63
2024/03/13 04:54:59;;;;;;;0.15;0.15;;;;;;;;;;5093293;28;20376;-63
2024/03/13 04:57:25;;;;;;;0.50;0.50;;;;;;;;;;5093301;28;20024;-63
2024/03/13 04:59:50;;;;;;;0.53;0.53;;;;;;;;;;5097458;28;20272;-63
2024/03/13 05:02:15;;;;;;;0.10;0.10;;;;;;;;;;5097417;28;20434;-63
2024/03/13 05:04:43;;;;;;;0.00;0.00;;;;;;;;;;5097457;28;20023;-63
2024/03/13 05:07:10;;;;;;;0.15;0.15;;;;;;;;;;5098457;28;20280;-63
2024/03/13 05:09:36;;;;;;;0.20;0.20;;;;;;;;;;5097532;28;20020;-63
2024/03/13 05:12:03;;;;;;;0.38;0.35;;;;;;;;;;5099146;28;20036;-63
2024/03/13 05:14:29;;;;;;;0.20;0.20;;;;;;;;;;5097498;28;20431;-63
2024/03/13 05:16:55;;;;;;;0.17;0.10;;;;;;;;;;5097098;28;20107;-63
2024/03/13 05:19:20;;;;;;;0.28;0.28;;;;;;;;;;5097368;28;20027;-63
2024/03/13 05:21:45;;;;;;;0.27;0.27;;;;;;;;;;5097102;28;20012;-63
2024/03/13 05:24:13;;;;;;;0.10;0.10;;;;;;;;;;5111251;28;20035;-63
2024/03/13 05:26:38;;;;;;;0.20;0.15;;;;;;;;;;5098607;28;20346;-63
2024/03/13 05:29:04;;;;;;;0.00;0.00;;;;;;;;;;5096253;28;20463;-63
2024/03/13 05:31:29;;;;;;;0.47;0.40;;;;;;;;;;5096102;28;20054;-63
2024/03/13 05:33:54;;;;;;;0.70;0.65;;;;;;;;;;5112849;28;20382;-63
2024/03/13 05:36:19;;;;;;;0.20;0.20;;;;;;;;;;5110662;28;20031;-63
2024/03/13 05:38:44;;;;;;;0.20;0.20;;;;;;;;;;5095171;28;20288;-63
2024/03/13 05:41:10;;;;;;;0.10;0.10;;;;;;;;;;5101865;28;20399;-63
2024/03/13 05:43:35;;;;;;;0.40;0.30;;;;;;;;;;5116244;28;20036;-63
2024/03/13 05:46:01;;;;;;;0.10;0.10;;;;;;;;;;5116362;28;20268;-65
2024/03/13 05:48:26;;;;;;;0.40;0.28;;;;;;;;;;5115040;28;20023;-65
2024/03/13 05:50:52;;;;;;;0.00;0.00;;;;;;;;;;5116161;28;20474;-65
2024/03/13 05:53:17;;;;;;;0.00;0.00;;;;;;;;;;5115460;28;20019;-65
2024/03/13 05:55:42;;;;;;;0.22;0.20;;;;;;;;;;5113808;28;20727;-65
2024/03/13 05:58:08;;;;;;;0.13;0.13;;;;;;;;;;5114977;28;20023;-65
2024/03/13 06:00:33;;;;;;;0.50;0.13;;;;;;;;;;5114693;28;20023;-65
2024/03/13 06:02:58;;;;;;;0.05;0.05;;;;;;;;;;5115324;28;20703;-65
2024/03/13 06:05:25;;;;;;;0.17;0.17;;;;;;;;;;5107483;28;20448;-65
2024/03/13 06:07:56;;;;;;;0.20;0.20;;;;;;;;;;5075488;28;20468;-66
2024/03/13 06:10:21;;;;;;;0.00;0.00;;;;;;;;;;5087083;28;20027;-65
2024/03/13 06:12:46;;;;;;;0.10;0.10;;;;;;;;;;5114469;28;20023;-65
2024/03/13 06:15:15;;;;;;;0.40;0.37;;;;;;;;;;5110973;28;20077;-65
2024/03/13 06:17:40;;;;;;;0.00;0.00;;;;;;;;;;5094941;28;20054;-65
2024/03/13 06:20:17;;;;;;;0.40;0.40;;;;;;;;;;5104251;28;20059;-65
2024/03/13 06:22:42;;;;;;;0.25;0.25;;;;;;;;;;5107551;28;20472;-66
2024/03/13 06:25:08;;;;;;;0.20;0.20;;;;;;;;;;5095358;28;20079;-65
2024/03/13 06:27:34;;;;;;;0.20;0.20;;;;;;;;;;5102726;28;20027;-65
2024/03/13 06:30:00;;;;;;;0.10;0.10;;;;;;;;;;5114848;28;20024;-65
2024/03/13 06:32:28;;;;;;;0.10;0.10;;;;;;;;;;5114810;28;20459;-65
2024/03/13 06:34:55;;;;;;;0.00;0.00;;;;;;;;;;5115283;28;20544;-65
2024/03/13 06:37:20;;;;;;;0.10;0.10;;;;;;;;;;5095664;28;20375;-65
2024/03/13 06:39:45;;;;;;;0.30;0.30;;;;;;;;;;5094401;28;20028;-65
2024/03/13 06:42:13;;;;;;;0.10;0.10;;;;;;;;;;5081819;28;20619;-66
2024/03/13 06:44:39;;;;;;;0.47;0.47;;;;;;;;;;5113321;28;20263;-65
2024/03/13 06:47:05;;;;;;;0.17;0.17;;;;;;;;;;5114550;28;20019;-75
2024/03/13 06:49:30;;;;;;;1.45;0.20;;;;;;;;;;5095405;28;20110;-66
2024/03/13 06:51:55;;;;;;;0.20;0.20;;;;;;;;;;5095608;28;20067;-66
2024/03/13 06:54:20;;;;;;;0.60;0.60;;;;;;;;;;5098454;28;20098;-66
2024/03/13 06:56:47;;;;;;;0.73;0.63;;;;;;;;;;5106811;28;20016;-64
2024/03/13 06:59:16;;;;;;;0.08;0.08;;;;;;;;;;5093786;28;20380;-64
2024/03/13 07:01:42;;;;;;;0.43;0.30;;;;;;;;;;5107542;28;20015;-64
2024/03/13 07:04:07;;;;;;;0.10;0.10;;;;;;;;;;5113492;28;20143;-65
2024/03/13 07:06:34;;;;;;;0.10;0.10;;;;;;;;;;5097010;28;20327;-64
2024/03/13 07:08:59;;;;;;;0.40;0.38;;;;;;;;;;5112607;28;20259;-64
2024/03/13 07:11:24;;;;;;;0.03;0.03;;;;;;;;;;5114756;28;20034;-64
2024/03/13 07:13:50;;;;;;;0.37;0.37;;;;;;;;;;5099713;28;20269;-64
2024/03/13 07:16:15;;;;;;;0.17;0.17;;;;;;;;;;5095180;28;20099;-64
2024/03/13 07:18:41;;;;;;;0.45;0.45;;;;;;;;;;5095023;28;20482;-64
2024/03/13 07:21:06;;;;;;;0.40;0.30;;;;;;;;;;5094332;28;20020;-64
2024/03/13 07:23:31;;;;;;;0.37;0.37;;;;;;;;;;5094774;28;20034;-64
2024/03/13 07:25:56;;;;;;;0.20;0.20;;;;;;;;;;5094638;28;20084;-64
2024/03/13 07:28:21;;;;;;;0.17;0.17;;;;;;;;;;5095009;28;20028;-64
2024/03/13 07:30:47;;;;;;;0.57;0.57;;;;;;;;;;5094949;28;20024;-64
2024/03/13 07:33:13;;;;;;;1.75;1.15;;;;;;;;;;5094816;28;20244;-64
2024/03/13 07:35:40;;;;;;;0.45;0.43;;;;;;;;;;5094610;28;20024;-64
2024/03/13 07:38:09;;;;;;;0.15;0.13;;;;;;;;;;5094753;28;20382;-64
2024/03/13 07:40:37;;;;;;;0.40;0.40;;;;;;;;;;5094758;28;20039;-64
2024/03/13 07:43:02;;;;;;;0.17;0.17;;;;;;;;;;5094613;28;20023;-64
2024/03/13 07:45:28;;;;;;;0.10;0.10;;;;;;;;;;5094388;28;20016;-64
2024/03/13 07:47:53;;;;;;;0.83;0.50;;;;;;;;;;5094610;28;20103;-64
2024/03/13 07:50:18;;;;;;;0.17;0.17;;;;;;;;;;5094316;28;20038;-64
2024/03/13 07:52:43;;;;;;;0.03;0.03;;;;;;;;;;5094303;28;20245;-64
2024/03/13 07:55:09;;;;;;;0.37;0.27;;;;;;;;;;5094185;28;20430;-64
2024/03/13 07:57:34;;;;;;;0.20;0.20;;;;;;;;;;5094435;28;20522;-64
2024/03/13 08:00:00;;;;;;;0.57;0.47;;;;;;;;;;5094110;28;20048;-64
2024/03/13 08:02:25;;;;;;;0.63;0.57;;;;;;;;;;5094078;28;20267;-64
2024/03/13 08:04:50;;;;;;;0.45;0.45;;;;;;;;;;5094446;28;20103;-64
2024/03/13 08:07:15;;;;;;;0.67;0.67;;;;;;;;;;5094248;28;20399;-64
2024/03/13 08:09:41;;;;;;;0.00;0.00;;;;;;;;;;5094254;28;20241;-64
2024/03/13 08:12:06;;;;;;;0.60;0.60;;;;;;;;;;5093972;28;20023;-64
2024/03/13 08:14:34;;;;;;;0.10;0.10;;;;;;;;;;5093870;28;20054;-64
2024/03/13 08:16:59;;;;;;;0.13;0.13;;;;;;;;;;5094121;28;20099;-64
2024/03/13 08:19:24;;;;;;;0.10;0.10;;;;;;;;;;5093749;28;20598;-64
2024/03/13 08:21:50;;;;;;;0.53;0.30;;;;;;;;;;5093853;28;20268;-64
2024/03/13 08:24:15;;;;;;;0.20;0.20;;;;;;;;;;5093809;28;20643;-64
2024/03/13 08:26:40;;;;;;;0.45;0.45;;;;;;;;;;5093430;28;20039;-64
2024/03/13 08:29:06;;;;;;;0.10;0.10;;;;;;;;;;5093728;28;20090;-65
2024/03/13 08:31:32;;;;;;;0.73;0.73;;;;;;;;;;5093824;28;20070;-65
2024/03/13 08:33:57;;;;;;;0.00;0.00;;;;;;;;;;5092966;28;20020;-65
2024/03/13 08:36:23;;;;;;;0.30;0.22;;;;;;;;;;5093829;28;20032;-65
2024/03/13 08:38:48;;;;;;;0.17;0.17;;;;;;;;;;5093508;28;20497;-65
2024/03/13 08:41:16;;;;;;;0.47;0.47;;;;;;;;;;5093553;28;20240;-65
2024/03/13 08:43:42;;;;;;;0.30;0.30;;;;;;;;;;5093691;28;20042;-65
2024/03/13 08:46:08;;;;;;;0.10;0.10;;;;;;;;;;5093687;28;20016;-65
2024/03/13 08:48:33;;;;;;;0.20;0.20;;;;;;;;;;5093487;28;20016;-64
2024/03/13 08:50:59;;;;;;;0.60;0.30;;;;;;;;;;5093650;28;20141;-64
2024/03/13 08:53:24;;;;;;;0.38;0.38;;;;;;;;;;5093620;28;20233;-64
2024/03/13 08:55:50;;;;;;;0.30;0.30;;;;;;;;;;5093418;28;20384;-64
2024/03/13 08:58:16;;;;;;;0.10;0.10;;;;;;;;;;5093476;28;20648;-64
2024/03/13 09:00:43;;;;;;;5.00;0.57;;;;;;;;;;5093292;28;20095;-65
2024/03/13 09:03:09;;;;;;;0.20;0.15;;;;;;;;;;5093554;28;20501;-64
2024/03/13 09:05:35;;;;;;;0.50;0.50;;;;;;;;;;5101601;28;20464;-62
2024/03/13 09:08:00;;;;;;;0.15;0.15;;;;;;;;;;5105169;28;20522;-62
2024/03/13 09:10:26;;;;;;;0.10;0.10;;;;;;;;;;5093368;28;20020;-63
2024/03/13 09:12:51;;;;;;;0.63;0.57;;;;;;;;;;5094205;28;20016;-62
2024/03/13 09:15:16;;;;;;;0.57;0.57;;;;;;;;;;5093461;28;20020;-70
2024/03/13 09:17:41;;;;;;;0.38;0.38;;;;;;;;;;5095073;28;20024;-70
2024/03/13 09:20:07;;;;;;;0.40;0.40;;;;;;;;;;5095386;28;20025;-70
2024/03/13 09:22:32;;;;;;;0.57;0.52;;;;;;;;;;5087782;28;20290;-70
2024/03/13 09:24:57;;;;;;;0.03;0.03;;;;;;;;;;5077415;28;20059;-71
2024/03/13 09:27:22;;;;;;;0.30;0.30;;;;;;;;;;5087769;28;20093;-69
2024/03/13 09:29:48;;;;;;;0.30;0.30;;;;;;;;;;5088125;28;20031;-71
2024/03/13 09:32:13;;;;;;;0.50;0.50;;;;;;;;;;5084187;28;20748;-70
2024/03/13 09:34:38;;;;;;;0.10;0.10;;;;;;;;;;5083246;28;20791;-70
2024/03/13 09:37:04;;;;;;;0.40;0.40;;;;;;;;;;5084461;28;20036;-71
2024/03/13 09:39:30;;;;;;;0.25;0.20;;;;;;;;;;5091316;28;20102;-70
2024/03/13 09:41:57;;;;;;;0.45;0.43;;;;;;;;;;5092591;28;20028;-71
2024/03/13 09:44:22;;;;;;;0.40;0.40;;;;;;;;;;5084431;28;20069;-71
2024/03/13 09:46:49;;;;;;;0.50;0.50;;;;;;;;;;5096120;28;20016;-70
2024/03/13 09:49:14;;;;;;;0.60;0.52;;;;;;;;;;5080914;28;20261;-70
2024/03/13 09:51:43;;;;;;;0.55;0.55;;;;;;;;;;5086775;28;20391;-70
2024/03/13 09:54:09;;;;;;;0.40;0.40;;;;;;;;;;5096290;28;20099;-70
2024/03/13 09:56:34;;;;;;;0.30;0.30;;;;;;;;;;5087486;28;20046;-68
2024/03/13 09:59:00;;;;;;;0.30;0.30;;;;;;;;;;5095632;28;20016;-71
2024/03/13 10:01:26;;;;;;;0.20;0.20;;;;;;;;;;5089779;28;20263;-70
2024/03/13 10:03:56;;;;;;;0.30;0.30;;;;;;;;;;5085512;28;20103;-70
2024/03/13 10:06:23;;;;;;;0.73;0.45;;;;;;;;;;5094758;28;20019;-71
2024/03/13 10:08:49;;;;;;;0.17;0.17;;;;;;;;;;5091650;28;20522;-71
2024/03/13 10:11:14;;;;;;;0.38;0.38;;;;;;;;;;5087350;28;20076;-69
2024/03/13 10:13:43;;;;;;;0.55;0.50;;;;;;;;;;5087259;28;20020;-71
2024/03/13 10:16:09;;;;;;;0.20;0.20;;;;;;;;;;5083911;28;20457;-70
2024/03/13 10:18:36;;;;;;;0.38;0.38;;;;;;;;;;5091050;28;20027;-71
2024/03/13 10:21:09;;;;;;;0.93;0.80;;;;;;;;;;5084922;28;20129;-71
2024/03/13 10:23:36;;;;;;;1.08;0.85;;;;;;;;;;5090044;28;20050;-71
2024/03/13 10:26:03;;;;;;;0.30;0.30;;;;;;;;;;5086929;28;20496;-62
2024/03/13 10:28:29;;;;;;;0.20;0.20;;;;;;;;;;5087374;28;20031;-62
2024/03/13 10:30:56;;;;;;;0.13;0.13;;;;;;;;;;5095469;28;20016;-62
2024/03/13 10:33:22;;;;;;;0.45;0.45;;;;;;;;;;5076865;28;20028;-63
2024/03/13 10:35:47;;;;;;;1.42;1.10;;;;;;;;;;5082817;28;20031;-62
2024/03/13 10:38:14;;;;;;;0.40;0.40;;;;;;;;;;5092416;28;20031;-63
2024/03/13 10:40:40;;;;;;;1.20;0.70;;;;;;;;;;5078592;28;20736;-62
2024/03/13 10:43:09;;;;;;;0.40;0.38;;;;;;;;;;5090704;28;20127;-63
2024/03/13 10:45:35;;;;;;;0.13;0.13;;;;;;;;;;5092511;28;20460;-62
2024/03/13 10:48:00;;;;;;;0.65;0.65;;;;;;;;;;5095255;28;20035;-62
2024/03/13 10:50:26;;;;;;;1.13;0.82;;;;;;;;;;5075452;28;20020;-63
2024/03/13 10:52:52;;;;;;;1.55;1.20;;;;;;;;;;5089477;28;20027;-62
2024/03/13 10:55:17;;;;;;;0.82;0.55;;;;;;;;;;5094050;28;20024;-63
2024/03/13 10:57:42;;;;;;;0.53;0.50;;;;;;;;;;5094550;28;20063;-63
2024/03/13 11:00:11;;;;;;;2.25;0.82;;;;;;;;;;5094279;28;20065;-62
2024/03/13 11:02:39;;;;;;;0.28;0.25;;;;;;;;;;5094665;28;20103;-63
2024/03/13 11:05:06;;;;;;;0.47;0.35;;;;;;;;;;5094135;28;20023;-62
2024/03/13 11:07:32;;;;;;;0.40;0.40;;;;;;;;;;5086255;28;20016;-63
2024/03/13 11:09:57;;;;;;;0.97;0.87;;;;;;;;;;5084937;28;20050;-62
2024/03/13 11:12:23;;;;;;;0.27;0.27;;;;;;;;;;5088579;28;20361;-63
2024/03/13 11:14:52;;;;;;;0.90;0.57;;;;;;;;;;5090929;28;20028;-62
2024/03/13 11:17:21;;;;;;;1.23;1.10;;;;;;;;;;5094483;28;20425;-63
2024/03/13 11:19:49;;;;;;;0.32;0.32;;;;;;;;;;5085531;28;20028;-62
2024/03/13 11:22:15;;;;;;;0.43;0.43;;;;;;;;;;5094049;28;20024;-62
2024/03/13 11:24:41;;;;;;;0.20;0.20;;;;;;;;;;5092005;28;20077;-62
2024/03/13 11:27:10;;;;;;;0.30;0.30;;;;;;;;;;5092245;28;20044;-63
2024/03/13 11:29:41;;;;;;;2.45;0.75;;;;;;;;;;5093948;28;20024;-62
2024/03/13 11:32:13;;;;;;;0.15;0.15;;;;;;;;;;5088385;28;20028;-62
2024/03/13 11:34:40;;;;;;;1.35;0.52;;;;;;;;;;5093450;28;20066;-62
2024/03/13 11:37:09;;;;;;;0.10;0.10;;;;;;;;;;5073957;28;20024;-62
2024/03/13 11:39:34;;;;;;;0.32;0.28;;;;;;;;;;5081494;28;20059;-62
2024/03/13 11:42:21;;;;;;;0.40;0.40;;;;;;;;;;5093846;28;20475;-62
2024/03/13 11:44:49;;;;;;;1.05;0.82;;;;;;;;;;5085563;28;20032;-62
2024/03/13 11:47:16;;;;;;;0.00;0.00;;;;;;;;;;5093779;28;20483;-62
2024/03/13 11:49:42;;;;;;;0.30;0.30;;;;;;;;;;5088589;28;20055;-62
2024/03/13 11:52:07;;;;;;;0.80;0.52;;;;;;;;;;5081876;28;20051;-62
2024/03/13 11:54:32;;;;;;;0.00;0.00;;;;;;;;;;5095789;28;20032;-62
2024/03/13 11:57:04;;;;;;;0.40;0.40;;;;;;;;;;5094441;28;20017;-62
2024/03/13 11:59:39;;;;;;;0.20;0.20;;;;;;;;;;5090970;28;20391;-62
2024/03/13 12:02:24;;;;;;;0.08;0.08;;;;;;;;;;5089099;28;20226;-62
2024/03/13 12:04:50;;;;;;;0.10;0.10;;;;;;;;;;5081881;28;20369;-62
2024/03/13 12:07:17;;;;;;;0.30;0.30;;;;;;;;;;5087071;28;20031;-62
2024/03/13 12:09:43;;;;;;;0.45;0.43;;;;;;;;;;5088822;28;20028;-62
2024/03/13 12:12:12;;;;;;;0.10;0.10;;;;;;;;;;5093317;28;20032;-62
2024/03/13 12:14:38;;;;;;;0.10;0.10;;;;;;;;;;5086204;28;20457;-62
2024/03/13 12:17:05;;;;;;;0.13;0.13;;;;;;;;;;5083473;28;20031;-62
2024/03/13 12:19:30;;;;;;;0.10;0.10;;;;;;;;;;5091503;28;20494;-62
2024/03/13 12:21:57;;;;;;;0.10;0.10;;;;;;;;;;5092917;28;20106;-62
2024/03/13 12:24:22;;;;;;;0.22;0.10;;;;;;;;;;5093245;28;20016;-63
2024/03/13 12:26:51;;;;;;;0.20;0.17;;;;;;;;;;5073314;28;20040;-62
2024/03/13 12:29:16;;;;;;;3.92;1.13;;;;;;;;;;5092935;28;20031;-63
2024/03/13 12:31:42;;;;;;;0.10;0.10;;;;;;;;;;5089566;28;20020;-62
2024/03/13 12:34:10;;;;;;;0.38;0.38;;;;;;;;;;5088075;28;20027;-62
2024/03/13 12:36:42;;;;;;;0.10;0.10;;;;;;;;;;5074562;28;20423;-62
2024/03/13 12:39:10;;;;;;;0.10;0.10;;;;;;;;;;5088269;28;20024;-62
2024/03/13 12:41:35;;;;;;;0.00;0.00;;;;;;;;;;5092742;28;20016;-63
2024/03/13 12:44:03;;;;;;;0.00;0.00;;;;;;;;;;5090058;28;20012;-63
2024/03/13 12:46:29;;;;;;;0.20;0.20;;;;;;;;;;5087871;28;20019;-72
2024/03/13 12:48:55;;;;;;;0.00;0.00;;;;;;;;;;5092547;28;20023;-73
2024/03/13 12:51:20;;;;;;;2.45;0.63;;;;;;;;;;5092793;28;20020;-72
2024/03/13 12:53:45;;;;;;;0.10;0.10;;;;;;;;;;5092691;28;20439;-72
2024/03/13 12:56:11;;;;;;;0.10;0.10;;;;;;;;;;5083301;28;20028;-72
2024/03/13 12:58:36;;;;;;;0.10;0.10;;;;;;;;;;5092744;28;20036;-73
2024/03/13 13:01:02;;;;;;;0.33;0.33;;;;;;;;;;5085364;28;20055;-73
2024/03/13 13:03:27;;;;;;;0.08;0.08;;;;;;;;;;5081629;28;20736;-72
2024/03/13 13:05:52;;;;;;;0.10;0.10;;;;;;;;;;5087523;28;20036;-73
2024/03/13 13:08:21;;;;;;;0.10;0.10;;;;;;;;;;5081535;28;20089;-68
2024/03/13 13:10:49;;;;;;;0.20;0.20;;;;;;;;;;5092821;28;20022;-72
2024/03/13 13:13:15;;;;;;;0.10;0.10;;;;;;;;;;5086090;28;20074;-73
2024/03/13 13:15:41;;;;;;;0.00;0.00;;;;;;;;;;5083438;28;20458;-72
2024/03/13 13:18:06;;;;;;;0.20;0.20;;;;;;;;;;5092181;28;20024;-73
2024/03/13 13:20:33;;;;;;;0.00;0.00;;;;;;;;;;5088028;28;20054;-72
2024/03/13 13:22:58;;;;;;;0.20;0.20;;;;;;;;;;5096182;28;20028;-73
2024/03/13 13:25:26;;;;;;;0.00;0.00;;;;;;;;;;5091311;28;20234;-72
2024/03/13 13:27:54;;;;;;;2.65;0.35;;;;;;;;;;5065949;28;20496;-72
2024/03/13 13:30:19;;;;;;;0.10;0.10;;;;;;;;;;5076366;28;20489;-71
2024/03/13 13:32:45;;;;;;;0.10;0.10;;;;;;;;;;5067428;28;20078;-72
2024/03/13 13:35:16;;;;;;;0.28;0.28;;;;;;;;;;5067954;28;20157;-72
2024/03/13 13:37:42;;;;;;;0.00;0.00;;;;;;;;;;5068152;28;20024;-73
2024/03/13 13:40:19;;;;;;;0.00;0.00;;;;;;;;;;5067573;28;20024;-72
2024/03/13 13:42:45;;;;;;;0.00;0.00;;;;;;;;;;5064798;28;20028;-72
2024/03/13 13:45:10;;;;;;;0.10;0.10;;;;;;;;;;5071033;28;20008;-72
2024/03/13 13:47:42;;;;;;;0.00;0.00;;;;;;;;;;5075394;28;20518;-72
2024/03/13 13:50:14;;;;;;;0.10;0.10;;;;;;;;;;5068030;28;20029;-73
2024/03/13 13:52:41;;;;;;;0.10;0.10;;;;;;;;;;5075569;28;20107;-72
2024/03/13 13:55:07;;;;;;;0.05;0.05;;;;;;;;;;5072423;28;20025;-63
2024/03/13 13:57:32;;;;;;;0.15;0.15;;;;;;;;;;5071185;28;20032;-62
2024/03/13 13:59:58;;;;;;;0.10;0.10;;;;;;;;;;5073897;28;20024;-63
2024/03/13 14:02:23;;;;;;;0.47;0.47;;;;;;;;;;5055730;28;20025;-64
2024/03/13 14:04:48;;;;;;;1.77;0.98;;;;;;;;;;5060156;28;20491;-63
2024/03/13 14:07:13;;;;;;;0.20;0.10;;;;;;;;;;5056813;28;20373;-63
2024/03/13 14:09:39;;;;;;;0.30;0.23;;;;;;;;;;5067655;28;20377;-62
2024/03/13 14:12:05;;;;;;;0.20;0.10;;;;;;;;;;5074542;28;20699;-63
2024/03/13 14:14:33;;;;;;;0.10;0.10;;;;;;;;;;5067432;28;20066;-63
2024/03/13 14:16:59;;;;;;;0.10;0.10;;;;;;;;;;5075083;28;20025;-62
2024/03/13 14:19:24;;;;;;;0.00;0.00;;;;;;;;;;5065510;28;20017;-62
2024/03/13 14:21:49;;;;;;;0.20;0.20;;;;;;;;;;5063767;28;20260;-63
2024/03/13 14:24:14;;;;;;;0.10;0.10;;;;;;;;;;5071630;28;20407;-63
2024/03/13 14:26:39;;;;;;;0.00;0.00;;;;;;;;;;5076711;28;20044;-63
2024/03/13 14:29:13;;;;;;;0.30;0.30;;;;;;;;;;5095541;28;20028;-62
2024/03/13 14:31:38;;;;;;;0.13;0.13;;;;;;;;;;5093445;28;20331;-64
2024/03/13 14:34:03;;;;;;;0.00;0.00;;;;;;;;;;5086289;28;20111;-63
2024/03/13 14:36:30;;;;;;;0.10;0.10;;;;;;;;;;5094901;28;20433;-63
2024/03/13 14:38:55;;;;;;;0.20;0.20;;;;;;;;;;5095374;28;20035;-62
2024/03/13 14:41:23;;;;;;;0.00;0.00;;;;;;;;;;5092481;28;20028;-63
2024/03/13 14:43:48;;;;;;;0.00;0.00;;;;;;;;;;5092654;28;20028;-62
2024/03/13 14:46:13;;;;;;;0.10;0.10;;;;;;;;;;5094904;28;20020;-63
2024/03/13 14:48:38;;;;;;;0.00;0.00;;;;;;;;;;5089261;28;20029;-63
2024/03/13 14:51:04;;;;;;;0.07;0.07;;;;;;;;;;5090535;28;20111;-63
2024/03/13 14:53:30;;;;;;;0.00;0.00;;;;;;;;;;5094706;28;20042;-63
2024/03/13 14:55:56;;;;;;;0.00;0.00;;;;;;;;;;5091889;28;20021;-63